Time;durP1;ratioP1;P1;durP2;ratioP2;P2;SDS_P1;SDS_P2;PMS_P1;PMS_P2;Temp;Humidity;BMP_temperature;BMP_pressure;BME280_temperature;BME280_humidity;BME280_pressure;Samples;Min_cycle;Max_cycle;Signal;HPM_P1;HPM_P2
2023/06/29 00:00:39;;;;;;;61.75;37.33;;;19.70;99.90;;;;;;4923049;29;20183;-80
2023/06/29 00:03:05;;;;;;;56.38;36.47;;;19.70;99.90;;;;;;4936388;29;20199;-81
2023/06/29 00:05:31;;;;;;;61.97;37.88;;;19.70;99.90;;;;;;4943406;29;20289;-83
2023/06/29 00:08:00;;;;;;;58.50;37.85;;;19.70;99.90;;;;;;4929071;29;20643;-82
2023/06/29 00:10:28;;;;;;;63.53;37.47;;;19.70;99.90;;;;;;4937339;29;20199;-82
2023/06/29 00:12:54;;;;;;;65.55;38.38;;;19.70;99.90;;;;;;4918803;29;20198;-82
2023/06/29 00:15:20;;;;;;;59.63;37.22;;;19.70;99.90;;;;;;4935373;29;20187;-83
2023/06/29 00:17:47;;;;;;;60.78;38.22;;;19.70;99.90;;;;;;4919035;29;20265;-82
2023/06/29 00:20:13;;;;;;;62.10;37.97;;;19.70;99.90;;;;;;4935516;29;20179;-82
2023/06/29 00:22:47;;;;;;;66.68;39.28;;;19.70;99.90;;;;;;4917603;29;20187;-82
2023/06/29 00:25:14;;;;;;;61.75;39.75;;;19.70;99.90;;;;;;4925403;29;20223;-82
2023/06/29 00:27:40;;;;;;;64.07;39.92;;;19.70;99.90;;;;;;4934628;29;20187;-82
2023/06/29 00:30:06;;;;;;;64.40;38.70;;;19.70;99.90;;;;;;4908702;29;20551;-82
2023/06/29 00:32:32;;;;;;;61.17;40.35;;;19.70;99.90;;;;;;4900654;29;20261;-82
2023/06/29 00:34:58;;;;;;;64.43;38.10;;;19.70;99.90;;;;;;4917339;29;20602;-82
2023/06/29 00:37:24;;;;;;;65.10;40.85;;;19.70;99.90;;;;;;4903967;29;20195;-82
2023/06/29 00:39:50;;;;;;;67.40;40.53;;;19.70;99.90;;;;;;4907876;29;20211;-82
2023/06/29 00:42:15;;;;;;;63.47;39.83;;;19.70;99.90;;;;;;4915612;29;20274;-85
2023/06/29 00:44:43;;;;;;;62.38;38.40;;;19.70;99.90;;;;;;4883572;29;20223;-82
2023/06/29 00:47:09;;;;;;;59.08;38.47;;;19.70;99.90;;;;;;4918115;29;20201;-81
2023/06/29 00:49:35;;;;;;;67.25;39.38;;;19.70;99.90;;;;;;4920363;29;20191;-82
2023/06/29 00:52:02;;;;;;;55.75;37.50;;;19.70;99.90;;;;;;4899483;29;20193;-83
2023/06/29 00:54:29;;;;;;;63.83;40.22;;;19.70;99.90;;;;;;4888755;29;20665;-83
2023/06/29 00:56:58;;;;;;;61.45;39.42;;;19.70;99.90;;;;;;4932562;29;20195;-81
2023/06/29 00:59:25;;;;;;;56.72;38.35;;;19.70;99.90;;;;;;4919388;29;20250;-81
2023/06/29 01:01:52;;;;;;;61.17;39.50;;;19.70;99.90;;;;;;4906458;29;20579;-81
2023/06/29 01:04:22;;;;;;;64.70;40.28;;;19.70;99.90;;;;;;4922058;29;20219;-82
2023/06/29 01:07:13;;;;;;;60.92;38.28;;;19.80;99.90;;;;;;4911581;29;20279;-82
2023/06/29 01:09:43;;;;;;;62.33;40.67;;;19.70;99.90;;;;;;4902538;29;20243;-80
2023/06/29 01:12:10;;;;;;;63.22;40.40;;;19.80;99.90;;;;;;4902112;29;20187;-83
2023/06/29 01:14:38;;;;;;;64.13;39.28;;;19.70;99.90;;;;;;4918936;29;20188;-82
2023/06/29 01:17:05;;;;;;;57.78;39.03;;;19.80;99.90;;;;;;4920565;29;20631;-82
2023/06/29 01:19:33;;;;;;;64.93;39.58;;;19.70;99.90;;;;;;4919428;29;20218;-81
2023/06/29 01:22:07;;;;;;;59.35;39.42;;;19.80;99.90;;;;;;4920838;29;20238;-82
2023/06/29 01:24:40;;;;;;;61.88;40.13;;;19.70;99.90;;;;;;4937303;29;20223;-81
2023/06/29 01:27:13;;;;;;;61.55;39.85;;;19.70;99.90;;;;;;4918078;29;20191;-81
2023/06/29 01:29:40;;;;;;;63.50;40.08;;;19.70;99.90;;;;;;4934976;29;20195;-81
2023/06/29 01:32:07;;;;;;;60.53;40.47;;;19.70;99.90;;;;;;4920935;29;20703;-82
2023/06/29 01:34:35;;;;;;;65.28;39.63;;;19.70;99.90;;;;;;4921189;29;20195;-81
2023/06/29 01:37:11;;;;;;;66.43;39.80;;;19.70;99.90;;;;;;4911616;29;20284;-82
2023/06/29 01:40:01;;;;;;;66.43;40.58;;;19.70;99.90;;;;;;4920618;29;20230;-82
2023/06/29 01:42:32;;;;;;;59.78;38.15;;;19.70;99.90;;;;;;4918902;29;20215;-82
2023/06/29 01:45:04;;;;;;;60.97;39.00;;;19.70;99.90;;;;;;4937820;29;20221;-81
2023/06/29 01:47:31;;;;;;;60.08;37.50;;;19.70;99.90;;;;;;4920955;29;20222;-81
2023/06/29 01:49:57;;;;;;;61.80;38.47;;;19.70;99.90;;;;;;4938510;29;20179;-82
2023/06/29 01:52:23;;;;;;;54.63;37.17;;;19.60;99.90;;;;;;4919810;29;20717;-82
2023/06/29 01:54:48;;;;;;;58.97;38.60;;;19.70;99.90;;;;;;4937077;29;20191;-82
2023/06/29 01:57:14;;;;;;;64.63;37.80;;;19.70;99.90;;;;;;4911198;29;20267;-82
2023/06/29 01:59:40;;;;;;;61.53;37.97;;;19.70;99.90;;;;;;4913444;29;20188;-81
2023/06/29 02:02:06;;;;;;;60.70;37.28;;;19.70;99.90;;;;;;4906420;29;20215;-82
2023/06/29 02:04:33;;;;;;;62.65;38.13;;;19.70;99.90;;;;;;4917156;29;20246;-82
2023/06/29 02:06:59;;;;;;;58.60;38.95;;;19.70;99.90;;;;;;4920779;29;20187;-81
2023/06/29 02:09:25;;;;;;;60.60;37.08;;;19.70;99.90;;;;;;4929003;29;20184;-82
2023/06/29 02:11:51;;;;;;;65.88;38.97;;;19.70;99.90;;;;;;4925567;29;20223;-82
2023/06/29 02:14:17;;;;;;;61.50;39.30;;;19.70;99.90;;;;;;4916711;29;20633;-82
2023/06/29 02:16:47;;;;;;;70.63;40.47;;;19.70;99.90;;;;;;4904333;29;20680;-82
2023/06/29 02:19:13;;;;;;;66.65;40.33;;;19.70;99.90;;;;;;4920219;29;20231;-82
2023/06/29 02:21:39;;;;;;;59.72;38.38;;;19.70;99.90;;;;;;4931267;29;20256;-82
2023/06/29 02:24:05;;;;;;;59.58;38.22;;;19.70;99.90;;;;;;4891844;29;20629;-82
2023/06/29 02:26:31;;;;;;;59.17;37.75;;;19.60;99.90;;;;;;4936376;29;20691;-81
2023/06/29 02:28:57;;;;;;;70.15;39.05;;;19.60;99.90;;;;;;4910439;29;20283;-84
2023/06/29 02:31:22;;;;;;;67.60;39.45;;;19.60;99.90;;;;;;4918093;29;20633;-81
2023/06/29 02:33:49;;;;;;;58.65;38.47;;;19.60;99.90;;;;;;4877861;29;20196;-82
2023/06/29 02:36:17;;;;;;;62.45;39.13;;;19.60;99.90;;;;;;4919631;29;20187;-81
2023/06/29 02:38:43;;;;;;;63.13;37.72;;;19.60;99.90;;;;;;4916210;29;20322;-83
2023/06/29 02:41:09;;;;;;;62.88;38.67;;;19.60;99.90;;;;;;4899606;29;20630;-81
2023/06/29 02:43:35;;;;;;;57.90;36.80;;;19.60;99.90;;;;;;4895873;29;20268;-82
2023/06/29 02:46:00;;;;;;;58.55;37.55;;;19.60;99.90;;;;;;4917547;29;20207;-82
2023/06/29 02:48:30;;;;;;;66.10;38.20;;;19.60;99.90;;;;;;4903319;29;20539;-82
2023/06/29 02:50:56;;;;;;;58.58;36.75;;;19.60;99.90;;;;;;4906487;29;20200;-82
2023/06/29 02:53:22;;;;;;;64.80;39.03;;;19.60;99.90;;;;;;4897926;29;20284;-83
2023/06/29 02:55:48;;;;;;;59.92;37.40;;;19.60;99.90;;;;;;4908474;29;20660;-82
2023/06/29 02:58:14;;;;;;;60.83;37.90;;;19.60;99.90;;;;;;4899311;29;20188;-82
2023/06/29 03:00:41;;;;;;;61.00;37.55;;;19.60;99.90;;;;;;4900308;29;20196;-82
2023/06/29 03:03:07;;;;;;;61.03;38.58;;;19.70;99.90;;;;;;4899845;29;20203;-83
2023/06/29 03:05:32;;;;;;;61.47;37.65;;;19.60;99.90;;;;;;4884914;29;20218;-82
2023/06/29 03:07:58;;;;;;;61.60;36.88;;;19.60;99.90;;;;;;4914635;29;20192;-82
2023/06/29 03:10:24;;;;;;;61.65;38.60;;;19.60;99.90;;;;;;4917191;29;20251;-82
2023/06/29 03:12:50;;;;;;;59.05;37.45;;;19.60;99.90;;;;;;4903517;29;20607;-83
2023/06/29 03:15:15;;;;;;;60.88;36.28;;;19.60;99.90;;;;;;4900404;29;20668;-83
2023/06/29 03:17:41;;;;;;;61.70;36.80;;;19.60;99.90;;;;;;4909025;29;20194;-82
2023/06/29 03:20:07;;;;;;;55.17;36.20;;;19.60;99.90;;;;;;4899960;29;20701;-83
2023/06/29 03:22:33;;;;;;;57.33;36.28;;;19.60;99.90;;;;;;4911590;29;20191;-82
2023/06/29 03:24:59;;;;;;;55.95;36.00;;;19.60;99.90;;;;;;4914749;29;20203;-83
2023/06/29 03:27:25;;;;;;;61.90;37.45;;;19.60;99.90;;;;;;4912964;29;20649;-85
2023/06/29 03:29:55;;;;;;;60.40;36.80;;;19.60;99.90;;;;;;4916355;29;20184;-82
2023/06/29 03:32:21;;;;;;;54.50;36.42;;;19.60;99.90;;;;;;4900229;29;20187;-83
2023/06/29 03:34:46;;;;;;;57.63;37.35;;;19.70;99.90;;;;;;4911110;29;20193;-82
2023/06/29 03:37:12;;;;;;;56.63;34.83;;;19.60;99.90;;;;;;4914597;29;20238;-83
2023/06/29 03:39:38;;;;;;;53.25;35.75;;;19.60;99.90;;;;;;4934404;29;20242;-82
2023/06/29 03:42:04;;;;;;;53.15;34.95;;;19.60;99.90;;;;;;4929130;29;20286;-82
2023/06/29 03:44:30;;;;;;;54.22;34.50;;;19.60;99.90;;;;;;4919351;29;20387;-82
2023/06/29 03:46:55;;;;;;;57.95;35.42;;;19.60;99.90;;;;;;4903569;29;20641;-82
2023/06/29 03:49:21;;;;;;;56.25;34.35;;;19.60;99.90;;;;;;4919211;29;20702;-82
2023/06/29 03:51:47;;;;;;;58.78;35.05;;;19.70;99.90;;;;;;4919443;29;20666;-82
2023/06/29 03:54:12;;;;;;;52.10;34.58;;;19.70;99.90;;;;;;4919312;29;20218;-83
2023/06/29 03:56:38;;;;;;;55.20;34.00;;;19.70;99.90;;;;;;4919072;29;20245;-82
2023/06/29 03:59:04;;;;;;;56.15;33.38;;;19.70;99.90;;;;;;4915130;29;20211;-83
2023/06/29 04:01:30;;;;;;;55.95;33.85;;;19.70;99.90;;;;;;4934296;29;20673;-82
2023/06/29 04:03:55;;;;;;;59.38;34.38;;;19.70;99.90;;;;;;4924852;29;20286;-86
2023/06/29 04:06:21;;;;;;;52.30;33.50;;;19.70;99.90;;;;;;4887631;29;20207;-82
2023/06/29 04:08:47;;;;;;;53.50;33.13;;;19.70;99.90;;;;;;4898888;29;20192;-83
2023/06/29 04:11:13;;;;;;;45.78;31.58;;;19.70;99.90;;;;;;4891774;29;20187;-83
2023/06/29 04:13:38;;;;;;;54.45;33.22;;;19.70;99.90;;;;;;4887964;29;20199;-82
2023/06/29 04:16:04;;;;;;;50.90;32.25;;;19.70;99.90;;;;;;4911116;29;20191;-82
2023/06/29 04:18:30;;;;;;;54.97;30.55;;;19.70;99.90;;;;;;4919311;29;20221;-83
2023/06/29 04:20:56;;;;;;;49.45;30.95;;;19.70;99.90;;;;;;4936825;29;20634;-82
2023/06/29 04:23:22;;;;;;;52.10;31.77;;;19.70;99.90;;;;;;4919342;29;20196;-82
2023/06/29 04:25:47;;;;;;;52.45;31.33;;;19.80;99.90;;;;;;4922283;29;20238;-83
2023/06/29 04:28:13;;;;;;;54.10;32.40;;;19.80;99.90;;;;;;4940920;29;20218;-82
2023/06/29 04:30:43;;;;;;;49.83;31.17;;;19.80;99.90;;;;;;4904508;29;20187;-83
2023/06/29 04:33:10;;;;;;;45.40;29.98;;;19.80;99.90;;;;;;4931659;29;20192;-84
2023/06/29 04:35:43;;;;;;;47.63;30.13;;;19.80;99.90;;;;;;4938531;29;20195;-85
2023/06/29 04:38:10;;;;;;;47.17;29.95;;;19.80;99.90;;;;;;4905600;29;20227;-85
2023/06/29 04:40:39;;;;;;;48.60;30.58;;;19.80;99.90;;;;;;4898432;29;20190;-83
2023/06/29 04:43:06;;;;;;;47.13;29.33;;;19.80;99.90;;;;;;4921699;29;20206;-83
2023/06/29 04:45:32;;;;;;;42.35;27.92;;;19.80;99.90;;;;;;4939135;29;20210;-83
2023/06/29 04:47:59;;;;;;;47.85;28.92;;;19.80;99.90;;;;;;4923670;29;20199;-83
2023/06/29 04:50:26;;;;;;;46.65;28.88;;;19.90;99.90;;;;;;4929455;29;20682;-83
2023/06/29 04:52:58;;;;;;;45.58;28.92;;;19.90;99.90;;;;;;4903260;29;20279;-84
2023/06/29 04:55:25;;;;;;;46.67;29.30;;;19.90;99.90;;;;;;4918445;29;20196;-84
2023/06/29 04:57:52;;;;;;;45.33;28.75;;;19.90;99.90;;;;;;4934436;29;20187;-84
2023/06/29 05:00:19;;;;;;;44.28;28.63;;;19.90;99.90;;;;;;4910551;29;20211;-82
2023/06/29 05:02:45;;;;;;;43.90;27.83;;;19.90;99.90;;;;;;4918537;29;20266;-87
2023/06/29 05:05:11;;;;;;;45.55;28.75;;;19.90;99.90;;;;;;4922105;29;20305;-86
2023/06/29 05:07:37;;;;;;;43.88;28.38;;;20.00;99.90;;;;;;4921550;29;20660;-86
2023/06/29 05:10:04;;;;;;;43.13;27.85;;;20.00;99.90;;;;;;4902168;29;20204;-87
2023/06/29 05:12:30;;;;;;;46.00;28.33;;;20.00;99.90;;;;;;4933443;29;20255;-86
2023/06/29 05:14:56;;;;;;;48.20;27.20;;;20.00;99.90;;;;;;4888688;29;20196;-87
2023/06/29 05:17:22;;;;;;;38.80;26.55;;;20.00;99.90;;;;;;4919761;29;20184;-86
2023/06/29 05:19:48;;;;;;;43.80;27.98;;;20.10;99.90;;;;;;4921075;29;20270;-86
2023/06/29 05:22:14;;;;;;;39.50;26.10;;;20.10;99.90;;;;;;4905113;29;20270;-87
2023/06/29 05:24:40;;;;;;;42.67;27.48;;;20.10;99.90;;;;;;4911579;29;20661;-88
2023/06/29 05:27:06;;;;;;;41.83;27.58;;;20.10;99.90;;;;;;4914120;29;20195;-88
2023/06/29 05:29:32;;;;;;;42.00;27.33;;;20.10;99.90;;;;;;4928722;29;20194;-86
2023/06/29 05:31:58;;;;;;;42.03;26.45;;;20.10;99.90;;;;;;4926344;29;20188;-87
2023/06/29 05:34:24;;;;;;;39.05;26.05;;;20.10;99.90;;;;;;4916091;29;20198;-87
2023/06/29 05:36:49;;;;;;;43.17;26.33;;;20.20;99.90;;;;;;4918799;29;20211;-87
2023/06/29 05:39:15;;;;;;;41.53;26.08;;;20.20;99.90;;;;;;4945427;29;20223;-87
2023/06/29 05:41:41;;;;;;;42.97;26.00;;;20.20;99.90;;;;;;4933979;29;20570;-86
2023/06/29 05:44:07;;;;;;;40.92;26.70;;;20.20;99.90;;;;;;4899716;29;20192;-85
2023/06/29 05:46:36;;;;;;;38.53;25.67;;;20.20;99.90;;;;;;4921055;29;20282;-86
2023/06/29 05:49:02;;;;;;;44.53;25.08;;;20.20;99.90;;;;;;4922189;29;20643;-86
2023/06/29 05:51:28;;;;;;;40.83;25.92;;;20.30;99.90;;;;;;4924934;29;20299;-86
2023/06/29 05:53:55;;;;;;;35.60;24.75;;;20.30;99.90;;;;;;4942234;29;20187;-88
2023/06/29 05:56:21;;;;;;;39.05;25.90;;;20.30;99.90;;;;;;4926251;29;20256;-88
2023/06/29 05:58:47;;;;;;;38.65;24.95;;;20.30;99.90;;;;;;4944279;29;20187;-87
2023/06/29 06:01:13;;;;;;;37.33;23.92;;;20.30;99.90;;;;;;4892517;29;20270;-88
2023/06/29 06:03:39;;;;;;;38.92;24.73;;;20.30;99.90;;;;;;4938661;29;20187;-88
2023/06/29 06:06:05;;;;;;;40.58;24.88;;;20.40;99.90;;;;;;4916551;29;20210;-86
2023/06/29 06:08:32;;;;;;;35.50;24.30;;;20.40;99.90;;;;;;4924700;29;20191;-87
2023/06/29 06:10:58;;;;;;;38.40;23.75;;;20.50;99.90;;;;;;4906494;29;20199;-85
2023/06/29 06:13:24;;;;;;;41.85;24.73;;;20.50;99.90;;;;;;4905449;29;20278;-85
2023/06/29 06:15:50;;;;;;;39.38;24.40;;;20.60;99.90;;;;;;4921453;29;20199;-85
2023/06/29 06:18:15;;;;;;;35.33;23.65;;;20.60;99.90;;;;;;4920072;29;20183;-86
2023/06/29 06:20:41;;;;;;;40.30;24.63;;;20.60;99.90;;;;;;4921190;29;20183;-86
2023/06/29 06:23:07;;;;;;;40.17;24.73;;;20.60;99.90;;;;;;4922033;29;20541;-85
2023/06/29 06:25:33;;;;;;;34.47;24.02;;;20.70;99.90;;;;;;4871923;29;20218;-86
2023/06/29 06:27:58;;;;;;;39.78;24.67;;;20.70;99.90;;;;;;4904431;29;20566;-86
2023/06/29 06:30:24;;;;;;;35.75;23.08;;;20.70;99.90;;;;;;4913332;29;20199;-86
2023/06/29 06:32:50;;;;;;;36.55;24.15;;;20.80;99.90;;;;;;4901990;29;20673;-85
2023/06/29 06:35:16;;;;;;;37.50;24.15;;;20.80;99.90;;;;;;4893032;29;20191;-85
2023/06/29 06:37:42;;;;;;;39.47;24.60;;;20.80;99.90;;;;;;4920982;29;20199;-86
2023/06/29 06:40:09;;;;;;;37.53;24.40;;;20.80;99.90;;;;;;4897837;29;20239;-86
2023/06/29 06:42:39;;;;;;;37.90;23.77;;;20.80;99.90;;;;;;4932134;29;20184;-85
2023/06/29 06:45:05;;;;;;;35.10;22.98;;;20.90;99.90;;;;;;4913143;29;20215;-84
2023/06/29 06:47:35;;;;;;;42.40;24.55;;;20.80;99.90;;;;;;4902000;29;20180;-84
2023/06/29 06:50:02;;;;;;;37.97;23.83;;;20.90;99.90;;;;;;4917897;29;20176;-85
2023/06/29 06:52:28;;;;;;;39.38;24.88;;;20.90;99.90;;;;;;4917102;29;20652;-85
2023/06/29 06:54:56;;;;;;;37.08;24.48;;;20.90;99.90;;;;;;4915185;29;20247;-87
2023/06/29 06:57:22;;;;;;;38.88;24.88;;;20.90;99.90;;;;;;4901347;29;20176;-87
2023/06/29 06:59:48;;;;;;;34.55;23.25;;;21.00;99.90;;;;;;4918583;29;20535;-88
2023/06/29 07:02:14;;;;;;;39.65;24.63;;;21.00;99.90;;;;;;4906583;29;20186;-89
2023/06/29 07:04:40;;;;;;;41.78;24.25;;;21.00;99.90;;;;;;4914664;29;20219;-87
2023/06/29 07:07:07;;;;;;;38.15;23.92;;;21.10;99.90;;;;;;4884968;29;20251;-88
2023/06/29 07:09:33;;;;;;;40.72;24.05;;;21.00;99.90;;;;;;4925337;29;20184;-87
2023/06/29 07:11:59;;;;;;;41.58;22.92;;;21.10;99.90;;;;;;4901082;29;20207;-87
2023/06/29 07:14:25;;;;;;;41.85;24.00;;;21.10;99.90;;;;;;4915059;29;20344;-87
2023/06/29 07:16:51;;;;;;;39.75;24.23;;;21.10;99.90;;;;;;4883231;29;20195;-87
2023/06/29 07:19:17;;;;;;;36.85;23.70;;;21.20;99.90;;;;;;4916074;29;20269;-87
2023/06/29 07:21:43;;;;;;;38.97;24.85;;;21.20;99.90;;;;;;4901584;29;20275;-88
2023/06/29 07:24:10;;;;;;;38.58;23.95;;;21.20;99.90;;;;;;4913850;29;20183;-84
2023/06/29 07:26:37;;;;;;;41.95;24.77;;;21.20;99.90;;;;;;4910419;29;20708;-87
2023/06/29 07:29:06;;;;;;;37.20;23.45;;;21.20;99.90;;;;;;4899330;29;20184;-88
2023/06/29 07:31:32;;;;;;;39.15;23.33;;;21.20;99.90;;;;;;4901223;29;20267;-88
2023/06/29 07:33:58;;;;;;;39.08;24.88;;;21.20;99.90;;;;;;4898185;29;20280;-88
2023/06/29 07:36:25;;;;;;;38.88;24.75;;;21.20;99.90;;;;;;4890493;29;20279;-87
2023/06/29 07:38:52;;;;;;;39.33;23.45;;;21.20;99.90;;;;;;4901062;29;20255;-89
2023/06/29 07:41:18;;;;;;;38.83;24.30;;;21.30;99.90;;;;;;4885840;29;20216;-89
2023/06/29 07:43:50;;;;;;;42.28;25.70;;;21.30;99.90;;;;;;4917779;29;20202;-88
2023/06/29 07:46:16;;;;;;;42.92;25.42;;;21.30;99.90;;;;;;4905882;29;20231;-87
2023/06/29 07:48:42;;;;;;;38.38;25.30;;;21.20;99.90;;;;;;4899365;29;20641;-88
2023/06/29 07:51:09;;;;;;;45.92;25.73;;;21.30;99.90;;;;;;4886509;29;20188;-88
2023/06/29 07:53:35;;;;;;;43.72;24.67;;;21.20;99.90;;;;;;4901645;29;20204;-89
2023/06/29 07:56:01;;;;;;;46.30;25.35;;;21.20;99.90;;;;;;4897839;29;20537;-87
2023/06/29 07:58:27;;;;;;;36.53;24.50;;;21.20;99.90;;;;;;4916952;29;20196;-88
2023/06/29 08:00:54;;;;;;;38.50;24.95;;;21.20;99.90;;;;;;4903976;29;20563;-90
2023/06/29 08:03:21;;;;;;;39.13;25.52;;;21.20;99.90;;;;;;4904771;29;20194;-89
2023/06/29 08:05:47;;;;;;;36.42;24.70;;;21.20;99.90;;;;;;4912951;29;20230;-87
2023/06/29 08:08:13;;;;;;;46.55;28.10;;;21.20;99.90;;;;;;4900279;29;20605;-89
2023/06/29 08:10:38;;;;;;;39.83;25.48;;;21.20;99.90;;;;;;4917363;29;20247;-90
2023/06/29 08:13:04;;;;;;;45.60;26.80;;;21.20;99.90;;;;;;4912274;29;20276;-88
2023/06/29 08:15:30;;;;;;;43.08;26.60;;;21.20;99.90;;;;;;4909850;29;20295;-88
2023/06/29 08:17:56;;;;;;;40.88;26.05;;;21.20;99.90;;;;;;4900898;29;20648;-88
2023/06/29 08:20:22;;;;;;;44.50;27.25;;;21.30;99.90;;;;;;4905680;29;20185;-89
2023/06/29 08:22:48;;;;;;;42.70;26.75;;;21.30;99.90;;;;;;4885111;29;20242;-89
2023/06/29 08:25:15;;;;;;;43.72;26.58;;;21.30;99.90;;;;;;4914870;29;20219;-89
2023/06/29 08:27:41;;;;;;;41.00;26.38;;;21.30;99.90;;;;;;4927750;29;20192;-90
2023/06/29 08:30:08;;;;;;;49.13;27.50;;;21.40;99.90;;;;;;4897084;29;20271;-85
2023/06/29 08:32:34;;;;;;;41.28;26.52;;;21.40;99.90;;;;;;4911665;29;20254;-86
2023/06/29 08:34:59;;;;;;;42.75;28.27;;;21.40;99.90;;;;;;4884480;29;20569;-85
2023/06/29 08:37:28;;;;;;;52.78;27.38;;;21.50;99.90;;;;;;4915523;29;20659;-86
2023/06/29 08:39:54;;;;;;;42.20;26.02;;;21.60;99.90;;;;;;4915057;29;20232;-86
2023/06/29 08:42:21;;;;;;;47.28;28.10;;;21.60;99.90;;;;;;4915824;29;20191;-86
2023/06/29 08:44:47;;;;;;;41.22;25.58;;;21.70;99.90;;;;;;4915753;29;20215;-85
2023/06/29 08:47:14;;;;;;;41.17;26.17;;;21.80;99.90;;;;;;4915391;29;20184;-87
2023/06/29 08:49:44;;;;;;;40.60;25.38;;;21.80;99.90;;;;;;4915792;29;20195;-87
2023/06/29 08:52:15;;;;;;;42.50;25.15;;;21.90;99.90;;;;;;4915805;29;20242;-86
2023/06/29 08:54:42;;;;;;;42.38;25.42;;;22.00;99.90;;;;;;4915637;29;20232;-86
2023/06/29 08:57:08;;;;;;;40.00;25.10;;;22.00;99.90;;;;;;4916942;29;20212;-87
2023/06/29 08:59:37;;;;;;;46.72;26.60;;;22.00;99.90;;;;;;4915560;29;20188;-86
2023/06/29 09:02:05;;;;;;;42.13;25.10;;;22.00;99.90;;;;;;4913061;29;20263;-84
2023/06/29 09:04:30;;;;;;;41.70;25.02;;;22.10;99.90;;;;;;4916353;29;20207;-84
2023/06/29 09:06:56;;;;;;;43.22;26.13;;;22.10;99.90;;;;;;4897508;29;20210;-84
2023/06/29 09:09:23;;;;;;;42.05;26.45;;;22.10;99.90;;;;;;4919297;29;20251;-87
2023/06/29 09:11:49;;;;;;;42.33;26.73;;;22.10;99.90;;;;;;4917247;29;20192;-84
2023/06/29 09:14:15;;;;;;;42.33;25.77;;;22.10;99.90;;;;;;4935065;29;20176;-85
2023/06/29 09:16:57;;;;;;;41.97;25.85;;;22.10;99.90;;;;;;4913727;29;20284;-84
2023/06/29 09:19:24;;;;;;;45.55;26.10;;;22.10;99.90;;;;;;4934137;29;20222;-84
2023/06/29 09:21:50;;;;;;;44.78;26.33;;;22.10;99.90;;;;;;4901974;29;20539;-84
2023/06/29 09:24:16;;;;;;;46.55;26.25;;;22.10;99.90;;;;;;4920416;29;20223;-85
2023/06/29 09:26:42;;;;;;;39.05;25.90;;;22.10;99.90;;;;;;4916505;29;20200;-86
2023/06/29 09:29:08;;;;;;;42.80;26.85;;;22.10;99.90;;;;;;4902987;29;20214;-85
2023/06/29 09:31:37;;;;;;;45.78;27.52;;;22.20;99.90;;;;;;4918208;29;20636;-86
2023/06/29 09:34:18;;;;;;;43.30;27.73;;;22.20;99.90;;;;;;4919121;29;20191;-86
2023/06/29 09:36:45;;;;;;;42.63;26.40;;;22.20;99.90;;;;;;4920076;29;20180;-85
2023/06/29 09:39:14;;;;;;;43.53;28.17;;;22.20;99.90;;;;;;4917710;29;20303;-86
2023/06/29 09:41:54;;;;;;;49.05;29.15;;;22.20;99.90;;;;;;4917876;29;20187;-86
2023/06/29 09:44:23;;;;;;;46.88;28.23;;;22.30;99.90;;;;;;4918223;29;20195;-85
2023/06/29 09:46:50;;;;;;;43.83;28.60;;;22.20;99.90;;;;;;4917347;29;20282;-85
2023/06/29 09:49:17;;;;;;;43.85;27.98;;;22.20;99.90;;;;;;4918541;29;20187;-84
2023/06/29 09:51:44;;;;;;;47.00;27.65;;;22.20;99.90;;;;;;4918606;29;20642;-85
2023/06/29 09:54:11;;;;;;;43.42;27.83;;;22.20;99.90;;;;;;4901949;29;20725;-83
2023/06/29 09:56:37;;;;;;;46.45;27.88;;;22.20;99.90;;;;;;4909347;29;20212;-83
2023/06/29 09:59:04;;;;;;;42.28;27.13;;;22.20;99.90;;;;;;4899743;29;20189;-84
2023/06/29 10:01:30;;;;;;;42.50;27.38;;;22.20;99.90;;;;;;4898582;29;20248;-85
2023/06/29 10:03:56;;;;;;;44.55;28.63;;;22.20;99.90;;;;;;4898632;29;20185;-84
2023/06/29 10:06:36;;;;;;;39.97;26.38;;;22.20;99.90;;;;;;4902313;29;20215;-83
2023/06/29 10:09:04;;;;;;;45.08;26.77;;;22.20;99.90;;;;;;4917132;29;20201;-84
2023/06/29 10:11:34;;;;;;;39.30;26.77;;;22.20;99.90;;;;;;4917566;29;20195;-84
2023/06/29 10:14:03;;;;;;;38.33;25.85;;;22.20;99.90;;;;;;4919082;29;20190;-84
2023/06/29 10:16:34;;;;;;;40.75;25.95;;;22.20;99.90;;;;;;4917672;29;20183;-85
2023/06/29 10:19:23;;;;;;;37.80;25.98;;;22.20;99.90;;;;;;4917942;29;20243;-84
2023/06/29 10:22:10;;;;;;;40.78;25.98;;;22.20;99.90;;;;;;4909106;29;20553;-85
2023/06/29 10:24:49;;;;;;;43.92;27.63;;;22.20;99.90;;;;;;4917443;29;20207;-85
2023/06/29 10:27:16;;;;;;;40.78;27.70;;;22.20;99.90;;;;;;4933124;29;20176;-85
2023/06/29 10:29:44;;;;;;;42.88;27.83;;;22.20;99.90;;;;;;4917370;29;20188;-85
2023/06/29 10:32:27;;;;;;;44.40;27.13;;;22.20;99.90;;;;;;4907108;29;20184;-83
2023/06/29 10:35:04;;;;;;;40.90;26.00;;;22.10;99.90;;;;;;4898371;29;20184;-84
2023/06/29 10:37:37;;;;;;;38.17;26.25;;;22.10;99.90;;;;;;4899700;29;20192;-85
2023/06/29 10:40:16;;;;;;;38.00;25.58;;;22.10;99.90;;;;;;4914470;29;20614;-84
2023/06/29 10:42:41;;;;;;;43.47;26.90;;;22.10;99.90;;;;;;4916732;29;20196;-84
2023/06/29 10:45:20;;;;;;;41.83;28.25;;;22.10;99.90;;;;;;4937531;29;20214;-84
2023/06/29 10:47:58;;;;;;;41.40;29.50;;;22.00;99.90;;;;;;4937283;29;20254;-83
2023/06/29 10:50:42;;;;;;;46.78;28.73;;;22.00;99.90;;;;;;4936833;29;20191;-84
2023/06/29 10:53:10;;;;;;;44.50;29.90;;;22.00;99.90;;;;;;4904320;29;20187;-83
2023/06/29 10:55:51;;;;;;;45.60;30.15;;;22.00;99.90;;;;;;4936972;29;20198;-84
2023/06/29 10:58:24;;;;;;;43.83;29.27;;;21.90;99.90;;;;;;4919883;29;20191;-85
2023/06/29 11:00:51;;;;;;;45.60;28.45;;;21.90;99.90;;;;;;4936616;29;20567;-85
2023/06/29 11:03:19;;;;;;;42.10;28.23;;;22.00;99.90;;;;;;4936708;29;20183;-85
2023/06/29 11:05:50;;;;;;;43.50;27.70;;;22.00;99.90;;;;;;4936645;29;20282;-84
2023/06/29 11:08:17;;;;;;;44.70;27.67;;;22.00;99.90;;;;;;4935783;29;20516;-85
2023/06/29 11:10:44;;;;;;;38.22;27.05;;;22.00;99.90;;;;;;4935893;29;20191;-84
2023/06/29 11:13:11;;;;;;;42.25;27.67;;;22.10;99.90;;;;;;4919210;29;20224;-85
2023/06/29 11:15:37;;;;;;;39.25;27.83;;;22.10;99.90;;;;;;4903457;29;20195;-84
2023/06/29 11:18:05;;;;;;;37.42;26.58;;;22.10;99.90;;;;;;4919577;29;20183;-84
2023/06/29 11:20:33;;;;;;;40.53;26.60;;;22.20;99.90;;;;;;4885459;29;20187;-84
2023/06/29 11:23:00;;;;;;;44.63;26.42;;;22.20;99.90;;;;;;4933613;29;20195;-84
2023/06/29 11:25:27;;;;;;;38.88;26.13;;;22.20;99.90;;;;;;4903717;29;20222;-84
2023/06/29 11:27:53;;;;;;;43.20;27.95;;;22.20;99.90;;;;;;4918956;29;20278;-84
2023/06/29 11:30:20;;;;;;;38.40;26.33;;;22.30;99.90;;;;;;4903852;29;20431;-85
2023/06/29 11:32:50;;;;;;;44.42;26.25;;;22.30;99.90;;;;;;4919434;29;20202;-85
2023/06/29 11:35:20;;;;;;;39.88;26.25;;;22.30;99.90;;;;;;4917956;29;20179;-85
2023/06/29 11:37:46;;;;;;;38.58;25.98;;;22.30;99.90;;;;;;4916040;29;20284;-85
2023/06/29 11:40:20;;;;;;;37.42;25.08;;;22.40;99.90;;;;;;4916499;29;20654;-86
2023/06/29 11:42:48;;;;;;;40.05;26.30;;;22.40;99.90;;;;;;4900237;29;20195;-85
2023/06/29 11:45:15;;;;;;;35.20;25.73;;;22.40;99.90;;;;;;4884899;29;20215;-85
2023/06/29 11:47:42;;;;;;;38.08;25.88;;;22.40;99.90;;;;;;4897925;29;20195;-86
2023/06/29 11:50:10;;;;;;;36.30;26.02;;;22.40;99.90;;;;;;4935772;29;20259;-85
2023/06/29 11:52:38;;;;;;;40.60;25.88;;;22.50;99.90;;;;;;4935962;29;20270;-85
2023/06/29 11:55:06;;;;;;;37.03;25.23;;;22.50;99.90;;;;;;4919866;29;20195;-85
2023/06/29 11:57:33;;;;;;;46.60;28.20;;;22.50;99.90;;;;;;4910538;29;20288;-85
2023/06/29 12:00:00;;;;;;;40.55;28.98;;;22.60;99.90;;;;;;4884558;29;20560;-85
2023/06/29 12:02:27;;;;;;;50.38;31.27;;;22.60;99.90;;;;;;4918342;29;20740;-86
2023/06/29 12:04:53;;;;;;;46.78;31.27;;;22.60;99.90;;;;;;4901797;29;20631;-85
2023/06/29 12:07:37;;;;;;;45.00;31.08;;;22.70;99.90;;;;;;4913149;29;20210;-85
2023/06/29 12:10:05;;;;;;;51.83;36.38;;;22.70;99.90;;;;;;4911897;29;20188;-85
2023/06/29 12:12:43;;;;;;;47.95;31.42;;;22.70;99.90;;;;;;4902948;29;20549;-85
2023/06/29 12:15:17;;;;;;;48.92;32.50;;;22.70;99.90;;;;;;4917905;29;20552;-85
2023/06/29 12:17:44;;;;;;;49.10;33.40;;;22.70;99.90;;;;;;4924767;29;20183;-85
2023/06/29 12:20:16;;;;;;;49.42;32.58;;;22.70;99.90;;;;;;4919942;29;20199;-85
2023/06/29 12:22:43;;;;;;;50.47;32.72;;;22.80;99.90;;;;;;4884243;29;20735;-85
2023/06/29 12:25:14;;;;;;;49.90;33.42;;;22.90;99.90;;;;;;4933106;29;20654;-85
2023/06/29 12:27:41;;;;;;;45.20;31.85;;;23.00;99.90;;;;;;4935432;29;20187;-85
2023/06/29 12:30:09;;;;;;;49.50;32.05;;;23.10;99.90;;;;;;4902050;29;20176;-86